sensor_id;sensor_type;location;lat;lon;timestamp;temperature;humidity
10089;DHT22;51898;49.864;8.550;2022-09-11T00:02:28;15.60;99.90
10089;DHT22;51898;49.864;8.550;2022-09-11T00:05:30;15.70;99.90
10089;DHT22;51898;49.864;8.550;2022-09-11T00:08:32;15.70;99.90
10089;DHT22;51898;49.864;8.550;2022-09-11T00:11:39;15.60;99.90
10089;DHT22;51898;49.864;8.550;2022-09-11T00:14:41;15.60;99.90
10089;DHT22;51898;49.864;8.550;2022-09-11T00:17:42;15.60;99.90
10089;DHT22;51898;49.864;8.550;2022-09-11T00:20:49;15.60;99.90
10089;DHT22;51898;49.864;8.550;2022-09-11T00:23:52;15.60;99.90
10089;DHT22;51898;49.864;8.550;2022-09-11T00:26:53;15.50;99.90
10089;DHT22;51898;49.864;8.550;2022-09-11T00:29:55;15.50;99.90
10089;DHT22;51898;49.864;8.550;2022-09-11T00:32:56;15.50;99.90
10089;DHT22;51898;49.864;8.550;2022-09-11T00:36:01;15.50;99.90
10089;DHT22;51898;49.864;8.550;2022-09-11T00:39:04;15.50;99.90
10089;DHT22;51898;49.864;8.550;2022-09-11T00:42:05;15.50;99.90
10089;DHT22;51898;49.864;8.550;2022-09-11T00:45:20;15.40;99.90
10089;DHT22;51898;49.864;8.550;2022-09-11T00:48:25;15.40;99.90
10089;DHT22;51898;49.864;8.550;2022-09-11T00:51:31;15.40;99.90
10089;DHT22;51898;49.864;8.550;2022-09-11T00:54:38;15.50;99.90
10089;DHT22;51898;49.864;8.550;2022-09-11T00:57:46;15.50;99.90
10089;DHT22;51898;49.864;8.550;2022-09-11T01:04:06;15.40;99.90
10089;DHT22;51898;49.864;8.550;2022-09-11T01:07:11;15.50;99.90
10089;DHT22;51898;49.864;8.550;2022-09-11T01:10:14;15.50;99.90
10089;DHT22;51898;49.864;8.550;2022-09-11T01:13:35;15.50;99.90
10089;DHT22;51898;49.864;8.550;2022-09-11T01:17:03;15.60;99.90
10089;DHT22;51898;49.864;8.550;2022-09-11T01:23:47;15.60;99.90
10089;DHT22;51898;49.864;8.550;2022-09-11T01:27:22;15.60;99.90
10089;DHT22;51898;49.864;8.550;2022-09-11T01:30:40;15.70;99.90
10089;DHT22;51898;49.864;8.550;2022-09-11T01:33:47;15.70;99.90
10089;DHT22;51898;49.864;8.550;2022-09-11T01:36:56;15.70;99.90
10089;DHT22;51898;49.864;8.550;2022-09-11T01:40:06;15.70;99.90
10089;DHT22;51898;49.864;8.550;2022-09-11T01:43:15;15.70;99.90
10089;DHT22;51898;49.864;8.550;2022-09-11T01:46:22;15.70;99.90
10089;DHT22;51898;49.864;8.550;2022-09-11T01:52:47;15.70;99.90
10089;DHT22;51898;49.864;8.550;2022-09-11T01:56:04;15.70;99.90
10089;DHT22;51898;49.864;8.550;2022-09-11T01:59:13;15.80;99.90
10089;DHT22;51898;49.864;8.550;2022-09-11T02:02:20;15.80;99.90
10089;DHT22;51898;49.864;8.550;2022-09-11T02:05:29;15.70;99.90
10089;DHT22;51898;49.864;8.550;2022-09-11T02:08:45;15.70;99.90
10089;DHT22;51898;49.864;8.550;2022-09-11T02:11:51;15.60;99.90
10089;DHT22;51898;49.864;8.550;2022-09-11T02:14:54;15.50;99.90
10089;DHT22;51898;49.864;8.550;2022-09-11T02:18:01;15.50;99.90
10089;DHT22;51898;49.864;8.550;2022-09-11T02:21:03;15.50;99.90
10089;DHT22;51898;49.864;8.550;2022-09-11T02:24:05;15.50;99.90
10089;DHT22;51898;49.864;8.550;2022-09-11T02:27:09;15.50;99.90
10089;DHT22;51898;49.864;8.550;2022-09-11T02:30:13;15.40;99.90
10089;DHT22;51898;49.864;8.550;2022-09-11T02:33:33;15.50;99.90
10089;DHT22;51898;49.864;8.550;2022-09-11T02:40:25;15.50;99.90
10089;DHT22;51898;49.864;8.550;2022-09-11T02:44:05;15.50;99.90
10089;DHT22;51898;49.864;8.550;2022-09-11T02:54:17;15.40;99.90
10089;DHT22;51898;49.864;8.550;2022-09-11T02:57:31;15.40;99.90
10089;DHT22;51898;49.864;8.550;2022-09-11T03:00:35;15.40;99.90
10089;DHT22;51898;49.864;8.550;2022-09-11T03:03:42;15.40;99.90
10089;DHT22;51898;49.864;8.550;2022-09-11T03:06:47;15.40;99.90
10089;DHT22;51898;49.864;8.550;2022-09-11T03:09:51;15.40;99.90
10089;DHT22;51898;49.864;8.550;2022-09-11T03:12:53;15.40;99.90
10089;DHT22;51898;49.864;8.550;2022-09-11T03:15:55;15.40;99.90
10089;DHT22;51898;49.864;8.550;2022-09-11T03:18:57;15.40;99.90
10089;DHT22;51898;49.864;8.550;2022-09-11T03:21:58;15.40;99.90
10089;DHT22;51898;49.864;8.550;2022-09-11T03:25:00;15.40;99.90
10089;DHT22;51898;49.864;8.550;2022-09-11T03:28:02;15.40;99.90
10089;DHT22;51898;49.864;8.550;2022-09-11T03:31:05;15.40;99.90
10089;DHT22;51898;49.864;8.550;2022-09-11T03:34:08;15.40;99.90
10089;DHT22;51898;49.864;8.550;2022-09-11T03:37:10;15.40;99.90
10089;DHT22;51898;49.864;8.550;2022-09-11T03:40:12;15.40;99.90
10089;DHT22;51898;49.864;8.550;2022-09-11T03:43:14;15.40;99.90
10089;DHT22;51898;49.864;8.550;2022-09-11T03:46:17;15.40;99.90
10089;DHT22;51898;49.864;8.550;2022-09-11T03:49:21;15.40;99.90
10089;DHT22;51898;49.864;8.550;2022-09-11T03:52:23;15.50;99.90
10089;DHT22;51898;49.864;8.550;2022-09-11T03:55:24;15.50;99.90
10089;DHT22;51898;49.864;8.550;2022-09-11T03:58:26;15.50;99.90
10089;DHT22;51898;49.864;8.550;2022-09-11T04:01:28;15.50;99.90
10089;DHT22;51898;49.864;8.550;2022-09-11T04:04:29;15.50;99.90
10089;DHT22;51898;49.864;8.550;2022-09-11T04:07:31;15.50;99.90
10089;DHT22;51898;49.864;8.550;2022-09-11T04:10:35;15.50;99.90
10089;DHT22;51898;49.864;8.550;2022-09-11T04:13:38;15.60;99.90
10089;DHT22;51898;49.864;8.550;2022-09-11T04:16:40;15.60;99.90
10089;DHT22;51898;49.864;8.550;2022-09-11T04:19:42;15.60;99.90
10089;DHT22;51898;49.864;8.550;2022-09-11T04:22:43;15.60;99.90
10089;DHT22;51898;49.864;8.550;2022-09-11T04:25:45;15.60;99.90
10089;DHT22;51898;49.864;8.550;2022-09-11T04:28:48;15.60;99.90
10089;DHT22;51898;49.864;8.550;2022-09-11T04:31:49;15.60;99.90
10089;DHT22;51898;49.864;8.550;2022-09-11T04:34:51;15.60;99.90
10089;DHT22;51898;49.864;8.550;2022-09-11T04:37:54;15.50;99.90
10089;DHT22;51898;49.864;8.550;2022-09-11T04:40:59;15.50;99.90
10089;DHT22;51898;49.864;8.550;2022-09-11T04:44:01;15.50;99.90
10089;DHT22;51898;49.864;8.550;2022-09-11T04:47:06;15.40;99.90
10089;DHT22;51898;49.864;8.550;2022-09-11T04:50:07;15.40;99.90
10089;DHT22;51898;49.864;8.550;2022-09-11T04:53:09;15.30;99.90
10089;DHT22;51898;49.864;8.550;2022-09-11T04:56:11;15.40;99.90
10089;DHT22;51898;49.864;8.550;2022-09-11T04:59:16;15.40;99.90
10089;DHT22;51898;49.864;8.550;2022-09-11T05:02:19;15.30;99.90
10089;DHT22;51898;49.864;8.550;2022-09-11T05:05:22;15.30;99.90
10089;DHT22;51898;49.864;8.550;2022-09-11T05:08:24;15.30;99.90
10089;DHT22;51898;49.864;8.550;2022-09-11T05:11:27;15.40;99.90
10089;DHT22;51898;49.864;8.550;2022-09-11T05:14:30;15.40;99.90
10089;DHT22;51898;49.864;8.550;2022-09-11T05:17:33;15.40;99.90
10089;DHT22;51898;49.864;8.550;2022-09-11T05:20:34;15.40;99.90
10089;DHT22;51898;49.864;8.550;2022-09-11T05:23:36;15.40;99.90
10089;DHT22;51898;49.864;8.550;2022-09-11T05:26:38;15.40;99.90
10089;DHT22;51898;49.864;8.550;2022-09-11T05:29:39;15.40;99.90
10089;DHT22;51898;49.864;8.550;2022-09-11T05:32:42;15.40;99.90
10089;DHT22;51898;49.864;8.550;2022-09-11T05:35:44;15.30;99.90
10089;DHT22;51898;49.864;8.550;2022-09-11T05:38:47;15.40;99.90
10089;DHT22;51898;49.864;8.550;2022-09-11T05:41:52;15.40;99.90
10089;DHT22;51898;49.864;8.550;2022-09-11T05:44:55;15.50;99.90
10089;DHT22;51898;49.864;8.550;2022-09-11T05:47:57;15.50;99.90
10089;DHT22;51898;49.864;8.550;2022-09-11T05:51:00;15.50;99.90
10089;DHT22;51898;49.864;8.550;2022-09-11T05:54:02;15.50;99.90
10089;DHT22;51898;49.864;8.550;2022-09-11T05:57:04;15.50;99.90
10089;DHT22;51898;49.864;8.550;2022-09-11T06:00:09;15.50;99.90
10089;DHT22;51898;49.864;8.550;2022-09-11T06:03:15;15.60;99.90
10089;DHT22;51898;49.864;8.550;2022-09-11T06:06:19;15.60;99.90
10089;DHT22;51898;49.864;8.550;2022-09-11T06:09:21;15.60;99.90
10089;DHT22;51898;49.864;8.550;2022-09-11T06:12:23;15.50;99.90
10089;DHT22;51898;49.864;8.550;2022-09-11T06:15:26;15.60;99.90
10089;DHT22;51898;49.864;8.550;2022-09-11T06:18:47;15.60;99.90
10089;DHT22;51898;49.864;8.550;2022-09-11T06:21:50;15.60;99.90
10089;DHT22;51898;49.864;8.550;2022-09-11T06:24:51;15.70;99.90
10089;DHT22;51898;49.864;8.550;2022-09-11T06:27:53;15.70;99.90
10089;DHT22;51898;49.864;8.550;2022-09-11T06:30:56;15.80;99.90
10089;DHT22;51898;49.864;8.550;2022-09-11T06:33:58;15.90;99.90
10089;DHT22;51898;49.864;8.550;2022-09-11T06:37:01;16.10;99.90
10089;DHT22;51898;49.864;8.550;2022-09-11T06:40:03;16.20;99.90
10089;DHT22;51898;49.864;8.550;2022-09-11T06:43:04;16.40;99.90
10089;DHT22;51898;49.864;8.550;2022-09-11T06:46:08;16.60;99.90
10089;DHT22;51898;49.864;8.550;2022-09-11T06:49:12;16.80;99.90
10089;DHT22;51898;49.864;8.550;2022-09-11T06:52:14;16.90;99.90
10089;DHT22;51898;49.864;8.550;2022-09-11T06:55:16;16.90;99.90
10089;DHT22;51898;49.864;8.550;2022-09-11T06:58:18;17.00;99.90
10089;DHT22;51898;49.864;8.550;2022-09-11T07:01:21;17.10;99.90
10089;DHT22;51898;49.864;8.550;2022-09-11T07:04:23;17.30;99.90
10089;DHT22;51898;49.864;8.550;2022-09-11T07:07:25;17.40;99.90
10089;DHT22;51898;49.864;8.550;2022-09-11T07:10:26;17.50;99.90
10089;DHT22;51898;49.864;8.550;2022-09-11T07:13:29;17.60;99.90
10089;DHT22;51898;49.864;8.550;2022-09-11T07:16:35;17.80;99.90
10089;DHT22;51898;49.864;8.550;2022-09-11T07:19:38;17.90;99.90
10089;DHT22;51898;49.864;8.550;2022-09-11T07:22:39;18.10;99.90
10089;DHT22;51898;49.864;8.550;2022-09-11T07:25:41;18.10;99.90
10089;DHT22;51898;49.864;8.550;2022-09-11T07:28:44;18.10;99.90
10089;DHT22;51898;49.864;8.550;2022-09-11T07:31:45;18.30;99.90
10089;DHT22;51898;49.864;8.550;2022-09-11T07:34:48;18.40;99.90
10089;DHT22;51898;49.864;8.550;2022-09-11T07:37:49;18.60;99.90
10089;DHT22;51898;49.864;8.550;2022-09-11T07:40:53;18.80;99.90
10089;DHT22;51898;49.864;8.550;2022-09-11T07:43:57;19.00;99.90
10089;DHT22;51898;49.864;8.550;2022-09-11T07:47:00;19.00;99.90
10089;DHT22;51898;49.864;8.550;2022-09-11T07:50:02;19.10;99.90
10089;DHT22;51898;49.864;8.550;2022-09-11T07:53:04;19.10;99.90
10089;DHT22;51898;49.864;8.550;2022-09-11T07:56:11;19.20;99.90
10089;DHT22;51898;49.864;8.550;2022-09-11T07:59:16;19.40;99.90
10089;DHT22;51898;49.864;8.550;2022-09-11T08:02:18;19.60;99.90
10089;DHT22;51898;49.864;8.550;2022-09-11T08:05:23;19.60;99.90
10089;DHT22;51898;49.864;8.550;2022-09-11T08:08:25;19.50;99.90
10089;DHT22;51898;49.864;8.550;2022-09-11T08:11:31;19.50;99.90
10089;DHT22;51898;49.864;8.550;2022-09-11T08:14:34;19.50;99.90
10089;DHT22;51898;49.864;8.550;2022-09-11T08:17:37;19.40;99.90
10089;DHT22;51898;49.864;8.550;2022-09-11T08:20:38;19.50;99.90
10089;DHT22;51898;49.864;8.550;2022-09-11T08:23:42;19.80;99.90
10089;DHT22;51898;49.864;8.550;2022-09-11T08:26:44;19.90;99.90
10089;DHT22;51898;49.864;8.550;2022-09-11T08:29:49;20.10;99.90
10089;DHT22;51898;49.864;8.550;2022-09-11T08:32:51;20.40;99.90
10089;DHT22;51898;49.864;8.550;2022-09-11T08:35:53;20.70;99.90
10089;DHT22;51898;49.864;8.550;2022-09-11T08:38:58;20.90;99.90
10089;DHT22;51898;49.864;8.550;2022-09-11T08:42:08;21.10;99.90
10089;DHT22;51898;49.864;8.550;2022-09-11T08:45:17;21.10;99.90
10089;DHT22;51898;49.864;8.550;2022-09-11T08:48:34;20.80;99.90
10089;DHT22;51898;49.864;8.550;2022-09-11T08:51:38;20.40;99.90
10089;DHT22;51898;49.864;8.550;2022-09-11T08:54:41;20.10;99.90
10089;DHT22;51898;49.864;8.550;2022-09-11T08:57:56;19.80;99.90
10089;DHT22;51898;49.864;8.550;2022-09-11T09:04:44;19.20;99.90
10089;DHT22;51898;49.864;8.550;2022-09-11T09:08:10;19.10;99.90
10089;DHT22;51898;49.864;8.550;2022-09-11T09:14:41;19.10;99.90
10089;DHT22;51898;49.864;8.550;2022-09-11T09:17:52;19.30;99.90
10089;DHT22;51898;49.864;8.550;2022-09-11T09:21:23;19.70;99.90
10089;DHT22;51898;49.864;8.550;2022-09-11T09:24:33;20.10;99.90
10089;DHT22;51898;49.864;8.550;2022-09-11T09:27:41;20.50;99.90
10089;DHT22;51898;49.864;8.550;2022-09-11T09:30:57;21.10;99.90
10089;DHT22;51898;49.864;8.550;2022-09-11T09:34:13;21.50;99.90
10089;DHT22;51898;49.864;8.550;2022-09-11T09:37:22;21.50;99.90
10089;DHT22;51898;49.864;8.550;2022-09-11T09:40:25;21.60;99.90
10089;DHT22;51898;49.864;8.550;2022-09-11T09:46:42;21.30;99.90
10089;DHT22;51898;49.864;8.550;2022-09-11T09:49:51;21.20;99.90
10089;DHT22;51898;49.864;8.550;2022-09-11T09:53:01;20.70;99.90
10089;DHT22;51898;49.864;8.550;2022-09-11T09:56:04;20.40;99.90
10089;DHT22;51898;49.864;8.550;2022-09-11T09:59:15;20.30;99.90
10089;DHT22;51898;49.864;8.550;2022-09-11T10:05:43;20.00;99.90
10089;DHT22;51898;49.864;8.550;2022-09-11T10:08:45;19.90;99.90
10089;DHT22;51898;49.864;8.550;2022-09-11T10:11:58;19.90;99.90
10089;DHT22;51898;49.864;8.550;2022-09-11T10:15:03;19.80;99.90
10089;DHT22;51898;49.864;8.550;2022-09-11T10:21:33;19.90;99.90
10089;DHT22;51898;49.864;8.550;2022-09-11T10:24:36;19.90;99.90
10089;DHT22;51898;49.864;8.550;2022-09-11T10:31:01;20.30;99.90
10089;DHT22;51898;49.864;8.550;2022-09-11T10:34:04;20.50;99.90
10089;DHT22;51898;49.864;8.550;2022-09-11T10:37:27;20.80;99.90
10089;DHT22;51898;49.864;8.550;2022-09-11T10:44:15;21.20;99.90
10089;DHT22;51898;49.864;8.550;2022-09-11T10:50:25;21.40;99.90
10089;DHT22;51898;49.864;8.550;2022-09-11T10:53:28;21.50;99.90
10089;DHT22;51898;49.864;8.550;2022-09-11T10:56:38;21.60;99.90
10089;DHT22;51898;49.864;8.550;2022-09-11T10:59:58;21.60;99.90
10089;DHT22;51898;49.864;8.550;2022-09-11T11:03:05;21.70;99.90
10089;DHT22;51898;49.864;8.550;2022-09-11T11:06:31;21.80;99.90
10089;DHT22;51898;49.864;8.550;2022-09-11T11:13:28;21.80;99.90
10089;DHT22;51898;49.864;8.550;2022-09-11T11:30:54;21.90;99.90
10089;DHT22;51898;49.864;8.550;2022-09-11T11:34:30;21.80;99.90
10089;DHT22;51898;49.864;8.550;2022-09-11T11:37:39;21.90;99.90
10089;DHT22;51898;49.864;8.550;2022-09-11T11:41:08;21.90;99.90
10089;DHT22;51898;49.864;8.550;2022-09-11T11:44:11;21.70;99.90
10089;DHT22;51898;49.864;8.550;2022-09-11T11:47:17;21.50;99.90
10089;DHT22;51898;49.864;8.550;2022-09-11T11:50:32;21.60;99.90
10089;DHT22;51898;49.864;8.550;2022-09-11T11:57:00;21.40;99.90
10089;DHT22;51898;49.864;8.550;2022-09-11T12:00:09;21.20;99.90
10089;DHT22;51898;49.864;8.550;2022-09-11T12:06:34;21.20;99.90
10089;DHT22;51898;49.864;8.550;2022-09-11T12:09:35;21.10;99.90
10089;DHT22;51898;49.864;8.550;2022-09-11T12:12:45;21.20;99.90
10089;DHT22;51898;49.864;8.550;2022-09-11T12:19:18;21.10;99.90
10089;DHT22;51898;49.864;8.550;2022-09-11T12:22:32;21.20;99.90
10089;DHT22;51898;49.864;8.550;2022-09-11T12:28:36;21.20;99.90
10089;DHT22;51898;49.864;8.550;2022-09-11T12:38:51;21.60;99.90
10089;DHT22;51898;49.864;8.550;2022-09-11T12:45:35;21.60;99.90
10089;DHT22;51898;49.864;8.550;2022-09-11T12:48:46;21.60;99.90
10089;DHT22;51898;49.864;8.550;2022-09-11T12:52:18;21.80;99.90
10089;DHT22;51898;49.864;8.550;2022-09-11T12:56:14;21.80;99.90
10089;DHT22;51898;49.864;8.550;2022-09-11T12:58:57;22.30;99.90
10089;DHT22;51898;49.864;8.550;2022-09-11T13:02:00;22.50;99.90
10089;DHT22;51898;49.864;8.550;2022-09-11T13:05:03;22.60;99.90
10089;DHT22;51898;49.864;8.550;2022-09-11T13:08:15;23.00;99.90
10089;DHT22;51898;49.864;8.550;2022-09-11T13:11:41;23.40;99.90
10089;DHT22;51898;49.864;8.550;2022-09-11T13:14:56;23.50;99.90
10089;DHT22;51898;49.864;8.550;2022-09-11T13:17:58;23.60;99.90
10089;DHT22;51898;49.864;8.550;2022-09-11T13:21:10;23.80;99.90
10089;DHT22;51898;49.864;8.550;2022-09-11T13:24:33;23.80;99.90
10089;DHT22;51898;49.864;8.550;2022-09-11T13:27:35;24.00;99.90
10089;DHT22;51898;49.864;8.550;2022-09-11T13:30:50;24.10;99.90
10089;DHT22;51898;49.864;8.550;2022-09-11T13:33:53;23.90;99.90
10089;DHT22;51898;49.864;8.550;2022-09-11T13:36:56;23.50;99.90
10089;DHT22;51898;49.864;8.550;2022-09-11T13:39:59;22.90;99.90
10089;DHT22;51898;49.864;8.550;2022-09-11T13:43:01;22.60;99.90
10089;DHT22;51898;49.864;8.550;2022-09-11T13:49:32;22.40;99.90
10089;DHT22;51898;49.864;8.550;2022-09-11T13:52:36;22.50;99.90
10089;DHT22;51898;49.864;8.550;2022-09-11T13:55:37;22.70;99.90
10089;DHT22;51898;49.864;8.550;2022-09-11T13:58:39;22.80;99.90
10089;DHT22;51898;49.864;8.550;2022-09-11T14:01:54;23.20;99.90
10089;DHT22;51898;49.864;8.550;2022-09-11T14:05:24;23.40;99.90
10089;DHT22;51898;49.864;8.550;2022-09-11T14:08:33;23.50;99.90
10089;DHT22;51898;49.864;8.550;2022-09-11T14:11:36;23.60;99.90
10089;DHT22;51898;49.864;8.550;2022-09-11T14:14:37;23.80;99.90
10089;DHT22;51898;49.864;8.550;2022-09-11T14:17:40;24.10;99.90
10089;DHT22;51898;49.864;8.550;2022-09-11T14:20:44;24.40;99.90
10089;DHT22;51898;49.864;8.550;2022-09-11T14:23:50;24.20;99.90
10089;DHT22;51898;49.864;8.550;2022-09-11T14:26:52;23.80;99.90
10089;DHT22;51898;49.864;8.550;2022-09-11T14:29:55;23.60;99.90
10089;DHT22;51898;49.864;8.550;2022-09-11T14:33:21;23.70;99.90
10089;DHT22;51898;49.864;8.550;2022-09-11T14:36:26;24.00;99.90
10089;DHT22;51898;49.864;8.550;2022-09-11T14:42:32;23.90;99.90
10089;DHT22;51898;49.864;8.550;2022-09-11T14:45:34;24.10;99.90
10089;DHT22;51898;49.864;8.550;2022-09-11T14:48:35;24.00;99.90
10089;DHT22;51898;49.864;8.550;2022-09-11T14:51:38;24.00;99.90
10089;DHT22;51898;49.864;8.550;2022-09-11T14:54:41;24.00;99.90
10089;DHT22;51898;49.864;8.550;2022-09-11T14:57:44;24.00;99.90
10089;DHT22;51898;49.864;8.550;2022-09-11T15:00:48;24.10;99.90
10089;DHT22;51898;49.864;8.550;2022-09-11T15:03:50;24.30;99.90
10089;DHT22;51898;49.864;8.550;2022-09-11T15:06:53;24.30;99.90
10089;DHT22;51898;49.864;8.550;2022-09-11T15:09:55;24.40;99.90
10089;DHT22;51898;49.864;8.550;2022-09-11T15:12:57;24.60;99.90
10089;DHT22;51898;49.864;8.550;2022-09-11T15:15:59;24.60;99.90
10089;DHT22;51898;49.864;8.550;2022-09-11T15:19:01;24.60;99.90
10089;DHT22;51898;49.864;8.550;2022-09-11T15:22:04;24.60;99.90
10089;DHT22;51898;49.864;8.550;2022-09-11T15:25:06;24.70;99.90
10089;DHT22;51898;49.864;8.550;2022-09-11T15:28:08;24.80;99.90
10089;DHT22;51898;49.864;8.550;2022-09-11T15:31:13;24.60;99.90
10089;DHT22;51898;49.864;8.550;2022-09-11T15:34:16;24.40;99.90
10089;DHT22;51898;49.864;8.550;2022-09-11T15:37:18;24.50;99.90
10089;DHT22;51898;49.864;8.550;2022-09-11T15:40:20;24.70;99.90
10089;DHT22;51898;49.864;8.550;2022-09-11T15:43:36;24.80;99.90
10089;DHT22;51898;49.864;8.550;2022-09-11T15:46:39;24.60;99.90
10089;DHT22;51898;49.864;8.550;2022-09-11T15:49:42;24.70;99.90
10089;DHT22;51898;49.864;8.550;2022-09-11T15:52:48;24.70;99.90
10089;DHT22;51898;49.864;8.550;2022-09-11T15:56:00;24.70;99.90
10089;DHT22;51898;49.864;8.550;2022-09-11T15:59:04;24.90;99.90
10089;DHT22;51898;49.864;8.550;2022-09-11T16:02:06;25.00;99.90
10089;DHT22;51898;49.864;8.550;2022-09-11T16:05:09;25.00;99.90
10089;DHT22;51898;49.864;8.550;2022-09-11T16:08:11;24.80;99.90
10089;DHT22;51898;49.864;8.550;2022-09-11T16:11:14;25.00;99.90
10089;DHT22;51898;49.864;8.550;2022-09-11T16:14:23;25.10;99.90
10089;DHT22;51898;49.864;8.550;2022-09-11T16:17:25;25.00;99.90
10089;DHT22;51898;49.864;8.550;2022-09-11T16:20:31;25.00;99.90
10089;DHT22;51898;49.864;8.550;2022-09-11T16:23:34;25.20;99.90
10089;DHT22;51898;49.864;8.550;2022-09-11T16:26:36;25.30;99.90
10089;DHT22;51898;49.864;8.550;2022-09-11T16:29:42;25.40;99.90
10089;DHT22;51898;49.864;8.550;2022-09-11T16:33:05;25.60;99.90
10089;DHT22;51898;49.864;8.550;2022-09-11T16:36:11;26.10;99.90
10089;DHT22;51898;49.864;8.550;2022-09-11T16:39:18;26.50;99.90
10089;DHT22;51898;49.864;8.550;2022-09-11T16:42:20;26.90;99.90
10089;DHT22;51898;49.864;8.550;2022-09-11T16:45:22;27.50;99.90
10089;DHT22;51898;49.864;8.550;2022-09-11T16:48:24;28.00;99.90
10089;DHT22;51898;49.864;8.550;2022-09-11T16:51:27;27.80;99.90
10089;DHT22;51898;49.864;8.550;2022-09-11T16:54:29;27.90;99.90
10089;DHT22;51898;49.864;8.550;2022-09-11T16:57:31;28.20;99.90
10089;DHT22;51898;49.864;8.550;2022-09-11T17:00:33;28.30;99.90
10089;DHT22;51898;49.864;8.550;2022-09-11T17:03:37;28.60;99.90
10089;DHT22;51898;49.864;8.550;2022-09-11T17:06:42;28.70;99.90
10089;DHT22;51898;49.864;8.550;2022-09-11T17:09:43;28.50;99.90
10089;DHT22;51898;49.864;8.550;2022-09-11T17:12:46;28.30;99.90
10089;DHT22;51898;49.864;8.550;2022-09-11T17:15:48;27.80;99.90
10089;DHT22;51898;49.864;8.550;2022-09-11T17:18:52;27.10;99.90
10089;DHT22;51898;49.864;8.550;2022-09-11T17:21:54;26.30;99.90
10089;DHT22;51898;49.864;8.550;2022-09-11T17:24:56;25.40;99.90
10089;DHT22;51898;49.864;8.550;2022-09-11T17:27:57;24.80;99.90
10089;DHT22;51898;49.864;8.550;2022-09-11T17:31:00;24.10;99.90
10089;DHT22;51898;49.864;8.550;2022-09-11T17:34:02;23.60;99.90
10089;DHT22;51898;49.864;8.550;2022-09-11T17:37:04;23.10;99.90
10089;DHT22;51898;49.864;8.550;2022-09-11T17:40:06;22.80;99.90
10089;DHT22;51898;49.864;8.550;2022-09-11T17:43:09;22.40;99.90
10089;DHT22;51898;49.864;8.550;2022-09-11T17:46:15;22.10;99.90
10089;DHT22;51898;49.864;8.550;2022-09-11T17:49:17;21.80;99.90
10089;DHT22;51898;49.864;8.550;2022-09-11T17:52:19;21.50;99.90
10089;DHT22;51898;49.864;8.550;2022-09-11T17:55:21;21.30;99.90
10089;DHT22;51898;49.864;8.550;2022-09-11T17:58:23;21.00;99.90
10089;DHT22;51898;49.864;8.550;2022-09-11T18:01:26;20.80;99.90
10089;DHT22;51898;49.864;8.550;2022-09-11T18:04:28;20.60;99.90
10089;DHT22;51898;49.864;8.550;2022-09-11T18:07:30;20.40;99.90
10089;DHT22;51898;49.864;8.550;2022-09-11T18:10:32;20.20;99.90
10089;DHT22;51898;49.864;8.550;2022-09-11T18:13:34;20.10;99.90
10089;DHT22;51898;49.864;8.550;2022-09-11T18:16:36;19.90;99.90
10089;DHT22;51898;49.864;8.550;2022-09-11T18:19:38;19.70;99.90
10089;DHT22;51898;49.864;8.550;2022-09-11T18:22:39;19.60;99.90
10089;DHT22;51898;49.864;8.550;2022-09-11T18:25:42;19.40;99.90
10089;DHT22;51898;49.864;8.550;2022-09-11T18:28:44;19.40;99.90
10089;DHT22;51898;49.864;8.550;2022-09-11T18:31:48;19.20;99.90
10089;DHT22;51898;49.864;8.550;2022-09-11T18:34:50;19.20;99.90
10089;DHT22;51898;49.864;8.550;2022-09-11T18:37:52;19.00;99.90
10089;DHT22;51898;49.864;8.550;2022-09-11T18:40:55;18.90;99.90
10089;DHT22;51898;49.864;8.550;2022-09-11T18:44:03;18.80;99.90
10089;DHT22;51898;49.864;8.550;2022-09-11T18:47:05;18.70;99.90
10089;DHT22;51898;49.864;8.550;2022-09-11T18:50:07;18.60;99.90
10089;DHT22;51898;49.864;8.550;2022-09-11T18:53:09;18.50;99.90
10089;DHT22;51898;49.864;8.550;2022-09-11T18:56:11;18.40;99.90
10089;DHT22;51898;49.864;8.550;2022-09-11T18:59:13;18.40;99.90
10089;DHT22;51898;49.864;8.550;2022-09-11T19:02:15;18.30;99.90
10089;DHT22;51898;49.864;8.550;2022-09-11T19:05:17;18.20;99.90
10089;DHT22;51898;49.864;8.550;2022-09-11T19:08:19;18.20;99.90
10089;DHT22;51898;49.864;8.550;2022-09-11T19:11:23;18.10;99.90
10089;DHT22;51898;49.864;8.550;2022-09-11T19:14:26;18.00;99.90
10089;DHT22;51898;49.864;8.550;2022-09-11T19:17:28;17.90;99.90
10089;DHT22;51898;49.864;8.550;2022-09-11T19:20:29;17.90;99.90
10089;DHT22;51898;49.864;8.550;2022-09-11T19:23:35;17.90;99.90
10089;DHT22;51898;49.864;8.550;2022-09-11T19:26:39;17.90;99.90
10089;DHT22;51898;49.864;8.550;2022-09-11T19:29:42;17.80;99.90
10089;DHT22;51898;49.864;8.550;2022-09-11T19:32:44;17.70;99.90
10089;DHT22;51898;49.864;8.550;2022-09-11T19:35:56;17.70;99.90
10089;DHT22;51898;49.864;8.550;2022-09-11T19:39:01;17.60;99.90
10089;DHT22;51898;49.864;8.550;2022-09-11T19:42:04;17.50;99.90
10089;DHT22;51898;49.864;8.550;2022-09-11T19:45:06;17.40;99.90
10089;DHT22;51898;49.864;8.550;2022-09-11T19:48:08;17.30;99.90
10089;DHT22;51898;49.864;8.550;2022-09-11T19:51:16;17.20;99.90
10089;DHT22;51898;49.864;8.550;2022-09-11T19:54:18;17.20;99.90
10089;DHT22;51898;49.864;8.550;2022-09-11T19:57:19;17.20;99.90
10089;DHT22;51898;49.864;8.550;2022-09-11T20:00:21;17.10;99.90
10089;DHT22;51898;49.864;8.550;2022-09-11T20:03:23;17.00;99.90
10089;DHT22;51898;49.864;8.550;2022-09-11T20:06:28;16.90;99.90
10089;DHT22;51898;49.864;8.550;2022-09-11T20:09:30;16.80;99.90
10089;DHT22;51898;49.864;8.550;2022-09-11T20:12:33;16.80;99.90
10089;DHT22;51898;49.864;8.550;2022-09-11T20:15:38;16.70;99.90
10089;DHT22;51898;49.864;8.550;2022-09-11T20:18:41;16.70;99.90
10089;DHT22;51898;49.864;8.550;2022-09-11T20:21:43;16.60;99.90
10089;DHT22;51898;49.864;8.550;2022-09-11T20:24:45;16.50;99.90
10089;DHT22;51898;49.864;8.550;2022-09-11T20:27:47;16.50;99.90
10089;DHT22;51898;49.864;8.550;2022-09-11T20:30:48;16.50;99.90
10089;DHT22;51898;49.864;8.550;2022-09-11T20:33:50;16.50;99.90
10089;DHT22;51898;49.864;8.550;2022-09-11T20:36:52;16.40;99.90
10089;DHT22;51898;49.864;8.550;2022-09-11T20:39:54;16.40;99.90
10089;DHT22;51898;49.864;8.550;2022-09-11T20:42:55;16.30;99.90
10089;DHT22;51898;49.864;8.550;2022-09-11T20:45:57;16.30;99.90
10089;DHT22;51898;49.864;8.550;2022-09-11T20:49:01;16.30;99.90
10089;DHT22;51898;49.864;8.550;2022-09-11T20:52:03;16.20;99.90
10089;DHT22;51898;49.864;8.550;2022-09-11T20:55:05;16.20;99.90
10089;DHT22;51898;49.864;8.550;2022-09-11T20:58:07;16.10;99.90
10089;DHT22;51898;49.864;8.550;2022-09-11T21:01:12;16.10;99.90
10089;DHT22;51898;49.864;8.550;2022-09-11T21:04:14;16.10;99.90
10089;DHT22;51898;49.864;8.550;2022-09-11T21:07:16;16.00;99.90